sensor_id;sensor_type;location;lat;lon;timestamp;P1;durP1;ratioP1;P2;durP2;ratioP2
49378;SDS011;35254;47.990;-1.608;2022-09-03T00:02:25;10.05;;;3.17;;
49378;SDS011;35254;47.990;-1.608;2022-09-03T00:10:14;15.30;;;3.10;;
49378;SDS011;35254;47.990;-1.608;2022-09-03T00:12:56;5.57;;;3.28;;
49378;SDS011;35254;47.990;-1.608;2022-09-03T00:15:26;7.47;;;4.45;;
49378;SDS011;35254;47.990;-1.608;2022-09-03T00:18:00;5.97;;;4.38;;
49378;SDS011;35254;47.990;-1.608;2022-09-03T00:20:31;8.30;;;4.18;;
49378;SDS011;35254;47.990;-1.608;2022-09-03T00:23:03;5.32;;;4.82;;
49378;SDS011;35254;47.990;-1.608;2022-09-03T00:25:46;5.38;;;4.22;;
49378;SDS011;35254;47.990;-1.608;2022-09-03T00:28:19;10.38;;;4.32;;
49378;SDS011;35254;47.990;-1.608;2022-09-03T00:30:51;4.03;;;3.65;;
49378;SDS011;35254;47.990;-1.608;2022-09-03T00:33:42;6.57;;;3.47;;
49378;SDS011;35254;47.990;-1.608;2022-09-03T00:38:41;4.95;;;3.88;;
49378;SDS011;35254;47.990;-1.608;2022-09-03T00:44:04;4.50;;;4.10;;
49378;SDS011;35254;47.990;-1.608;2022-09-03T00:49:38;7.45;;;3.30;;
49378;SDS011;35254;47.990;-1.608;2022-09-03T01:00:27;10.20;;;4.03;;
49378;SDS011;35254;47.990;-1.608;2022-09-03T01:13:26;11.25;;;6.55;;
49378;SDS011;35254;47.990;-1.608;2022-09-03T01:27:02;14.43;;;9.68;;
49378;SDS011;35254;47.990;-1.608;2022-09-03T01:29:36;12.88;;;9.15;;
49378;SDS011;35254;47.990;-1.608;2022-09-03T01:32:20;14.50;;;9.10;;
49378;SDS011;35254;47.990;-1.608;2022-09-03T01:35:07;11.98;;;9.77;;
49378;SDS011;35254;47.990;-1.608;2022-09-03T01:40:31;11.85;;;9.05;;
49378;SDS011;35254;47.990;-1.608;2022-09-03T01:43:16;11.25;;;10.00;;
49378;SDS011;35254;47.990;-1.608;2022-09-03T01:45:54;11.95;;;10.13;;
49378;SDS011;35254;47.990;-1.608;2022-09-03T01:59:03;11.98;;;10.35;;
49378;SDS011;35254;47.990;-1.608;2022-09-03T02:01:40;12.35;;;11.15;;
49378;SDS011;35254;47.990;-1.608;2022-09-03T02:04:15;11.60;;;10.40;;
49378;SDS011;35254;47.990;-1.608;2022-09-03T02:06:44;11.63;;;10.48;;
49378;SDS011;35254;47.990;-1.608;2022-09-03T02:09:13;12.20;;;10.63;;
49378;SDS011;35254;47.990;-1.608;2022-09-03T02:11:39;12.82;;;10.65;;
49378;SDS011;35254;47.990;-1.608;2022-09-03T02:14:06;11.88;;;10.50;;
49378;SDS011;35254;47.990;-1.608;2022-09-03T02:16:32;11.40;;;10.40;;
49378;SDS011;35254;47.990;-1.608;2022-09-03T02:19:00;11.65;;;10.45;;
49378;SDS011;35254;47.990;-1.608;2022-09-03T02:21:34;10.95;;;9.88;;
49378;SDS011;35254;47.990;-1.608;2022-09-03T02:24:03;10.88;;;9.77;;
49378;SDS011;35254;47.990;-1.608;2022-09-03T02:26:31;11.73;;;10.55;;
49378;SDS011;35254;47.990;-1.608;2022-09-03T02:28:57;12.70;;;11.45;;
49378;SDS011;35254;47.990;-1.608;2022-09-03T02:31:25;12.70;;;11.40;;
49378;SDS011;35254;47.990;-1.608;2022-09-03T02:33:52;14.13;;;11.52;;
49378;SDS011;35254;47.990;-1.608;2022-09-03T02:36:19;15.40;;;12.50;;
49378;SDS011;35254;47.990;-1.608;2022-09-03T02:38:49;14.55;;;12.85;;
49378;SDS011;35254;47.990;-1.608;2022-09-03T02:41:15;13.02;;;11.73;;
49378;SDS011;35254;47.990;-1.608;2022-09-03T02:46:24;14.15;;;12.57;;
49378;SDS011;35254;47.990;-1.608;2022-09-03T02:48:54;22.60;;;12.68;;
49378;SDS011;35254;47.990;-1.608;2022-09-03T02:51:20;13.05;;;11.75;;
49378;SDS011;35254;47.990;-1.608;2022-09-03T02:53:46;13.52;;;12.15;;
49378;SDS011;35254;47.990;-1.608;2022-09-03T02:56:12;14.27;;;12.38;;
49378;SDS011;35254;47.990;-1.608;2022-09-03T02:58:37;15.45;;;12.77;;
49378;SDS011;35254;47.990;-1.608;2022-09-03T03:01:03;13.93;;;12.38;;
49378;SDS011;35254;47.990;-1.608;2022-09-03T03:03:29;13.57;;;12.25;;
49378;SDS011;35254;47.990;-1.608;2022-09-03T03:05:56;13.90;;;12.50;;
49378;SDS011;35254;47.990;-1.608;2022-09-03T03:08:25;14.95;;;12.82;;
49378;SDS011;35254;47.990;-1.608;2022-09-03T03:10:52;14.05;;;12.25;;
49378;SDS011;35254;47.990;-1.608;2022-09-03T03:13:23;14.25;;;12.77;;
49378;SDS011;35254;47.990;-1.608;2022-09-03T03:15:58;12.73;;;11.57;;
49378;SDS011;35254;47.990;-1.608;2022-09-03T03:18:26;12.48;;;11.27;;
49378;SDS011;35254;47.990;-1.608;2022-09-03T03:20:52;11.23;;;10.13;;
49378;SDS011;35254;47.990;-1.608;2022-09-03T03:23:18;12.90;;;10.93;;
49378;SDS011;35254;47.990;-1.608;2022-09-03T03:25:44;11.90;;;10.80;;
49378;SDS011;35254;47.990;-1.608;2022-09-03T03:28:10;13.23;;;10.25;;
49378;SDS011;35254;47.990;-1.608;2022-09-03T03:30:37;12.45;;;10.30;;
49378;SDS011;35254;47.990;-1.608;2022-09-03T03:33:04;11.30;;;10.13;;
49378;SDS011;35254;47.990;-1.608;2022-09-03T03:35:30;13.20;;;11.18;;
49378;SDS011;35254;47.990;-1.608;2022-09-03T03:37:57;11.55;;;10.43;;
49378;SDS011;35254;47.990;-1.608;2022-09-03T03:40:23;11.10;;;9.75;;
49378;SDS011;35254;47.990;-1.608;2022-09-03T03:42:49;10.57;;;9.68;;
49378;SDS011;35254;47.990;-1.608;2022-09-03T03:45:14;12.15;;;11.02;;
49378;SDS011;35254;47.990;-1.608;2022-09-03T03:47:40;12.13;;;10.98;;
49378;SDS011;35254;47.990;-1.608;2022-09-03T03:50:06;12.52;;;11.32;;
49378;SDS011;35254;47.990;-1.608;2022-09-03T03:52:32;11.90;;;10.80;;
49378;SDS011;35254;47.990;-1.608;2022-09-03T03:54:58;10.73;;;9.82;;
49378;SDS011;35254;47.990;-1.608;2022-09-03T03:57:23;13.52;;;12.23;;
49378;SDS011;35254;47.990;-1.608;2022-09-03T03:59:49;12.07;;;10.98;;
49378;SDS011;35254;47.990;-1.608;2022-09-03T04:02:15;15.10;;;10.38;;
49378;SDS011;35254;47.990;-1.608;2022-09-03T04:04:42;12.38;;;11.15;;
49378;SDS011;35254;47.990;-1.608;2022-09-03T04:07:08;18.05;;;10.27;;
49378;SDS011;35254;47.990;-1.608;2022-09-03T04:09:33;10.43;;;9.43;;
49378;SDS011;35254;47.990;-1.608;2022-09-03T04:11:59;10.73;;;9.63;;
49378;SDS011;35254;47.990;-1.608;2022-09-03T04:14:25;12.15;;;9.27;;
49378;SDS011;35254;47.990;-1.608;2022-09-03T04:16:52;11.93;;;10.73;;
49378;SDS011;35254;47.990;-1.608;2022-09-03T04:19:18;10.82;;;9.73;;
49378;SDS011;35254;47.990;-1.608;2022-09-03T04:21:44;10.60;;;9.60;;
49378;SDS011;35254;47.990;-1.608;2022-09-03T04:24:10;10.10;;;9.10;;
49378;SDS011;35254;47.990;-1.608;2022-09-03T04:26:37;13.55;;;9.57;;
49378;SDS011;35254;47.990;-1.608;2022-09-03T04:29:04;10.52;;;9.52;;
49378;SDS011;35254;47.990;-1.608;2022-09-03T04:31:31;9.60;;;8.68;;
49378;SDS011;35254;47.990;-1.608;2022-09-03T04:33:58;9.93;;;9.10;;
49378;SDS011;35254;47.990;-1.608;2022-09-03T04:36:25;11.50;;;10.35;;
49378;SDS011;35254;47.990;-1.608;2022-09-03T04:38:52;11.50;;;10.40;;
49378;SDS011;35254;47.990;-1.608;2022-09-03T04:41:23;11.30;;;10.30;;
49378;SDS011;35254;47.990;-1.608;2022-09-03T04:43:51;12.73;;;11.45;;
49378;SDS011;35254;47.990;-1.608;2022-09-03T04:46:18;11.85;;;10.70;;
49378;SDS011;35254;47.990;-1.608;2022-09-03T04:48:48;12.25;;;11.05;;
49378;SDS011;35254;47.990;-1.608;2022-09-03T04:51:16;13.85;;;10.48;;
49378;SDS011;35254;47.990;-1.608;2022-09-03T04:53:44;13.60;;;10.55;;
49378;SDS011;35254;47.990;-1.608;2022-09-03T04:56:15;13.52;;;11.48;;
49378;SDS011;35254;47.990;-1.608;2022-09-03T04:58:46;13.63;;;12.27;;
49378;SDS011;35254;47.990;-1.608;2022-09-03T05:01:17;12.68;;;11.48;;
49378;SDS011;35254;47.990;-1.608;2022-09-03T05:03:44;13.75;;;12.45;;
49378;SDS011;35254;47.990;-1.608;2022-09-03T05:06:10;14.93;;;12.32;;
49378;SDS011;35254;47.990;-1.608;2022-09-03T05:08:36;13.38;;;11.98;;
49378;SDS011;35254;47.990;-1.608;2022-09-03T05:11:05;14.00;;;12.50;;
49378;SDS011;35254;47.990;-1.608;2022-09-03T05:13:32;18.00;;;14.38;;
49378;SDS011;35254;47.990;-1.608;2022-09-03T05:15:59;16.48;;;14.75;;
49378;SDS011;35254;47.990;-1.608;2022-09-03T05:18:26;17.00;;;13.95;;
49378;SDS011;35254;47.990;-1.608;2022-09-03T05:20:58;15.45;;;13.90;;
49378;SDS011;35254;47.990;-1.608;2022-09-03T05:23:26;16.13;;;14.48;;
49378;SDS011;35254;47.990;-1.608;2022-09-03T05:25:59;15.18;;;13.68;;
49378;SDS011;35254;47.990;-1.608;2022-09-03T05:28:27;16.42;;;14.73;;
49378;SDS011;35254;47.990;-1.608;2022-09-03T05:30:59;18.17;;;15.80;;
49378;SDS011;35254;47.990;-1.608;2022-09-03T05:33:25;18.42;;;14.88;;
49378;SDS011;35254;47.990;-1.608;2022-09-03T05:35:52;21.25;;;17.00;;
49378;SDS011;35254;47.990;-1.608;2022-09-03T05:38:19;17.73;;;15.50;;
49378;SDS011;35254;47.990;-1.608;2022-09-03T05:40:45;18.65;;;16.33;;
49378;SDS011;35254;47.990;-1.608;2022-09-03T05:43:10;19.35;;;17.25;;
49378;SDS011;35254;47.990;-1.608;2022-09-03T05:45:36;21.33;;;16.85;;
49378;SDS011;35254;47.990;-1.608;2022-09-03T05:48:01;21.60;;;17.02;;
49378;SDS011;35254;47.990;-1.608;2022-09-03T05:50:27;19.98;;;16.90;;
49378;SDS011;35254;47.990;-1.608;2022-09-03T05:52:53;20.88;;;15.63;;
49378;SDS011;35254;47.990;-1.608;2022-09-03T05:55:18;19.55;;;17.55;;
49378;SDS011;35254;47.990;-1.608;2022-09-03T05:57:44;22.42;;;15.82;;
49378;SDS011;35254;47.990;-1.608;2022-09-03T06:00:15;21.08;;;16.98;;
49378;SDS011;35254;47.990;-1.608;2022-09-03T06:02:48;17.98;;;15.80;;
49378;SDS011;35254;47.990;-1.608;2022-09-03T06:05:17;24.70;;;17.50;;
49378;SDS011;35254;47.990;-1.608;2022-09-03T06:07:43;22.67;;;17.92;;
49378;SDS011;35254;47.990;-1.608;2022-09-03T06:10:12;21.23;;;17.85;;
49378;SDS011;35254;47.990;-1.608;2022-09-03T06:12:40;20.50;;;18.10;;
49378;SDS011;35254;47.990;-1.608;2022-09-03T06:15:06;21.73;;;18.58;;
49378;SDS011;35254;47.990;-1.608;2022-09-03T06:17:33;26.50;;;17.67;;
49378;SDS011;35254;47.990;-1.608;2022-09-03T06:19:58;20.73;;;17.67;;
49378;SDS011;35254;47.990;-1.608;2022-09-03T06:22:24;20.23;;;18.00;;
49378;SDS011;35254;47.990;-1.608;2022-09-03T06:24:52;22.60;;;18.20;;
49378;SDS011;35254;47.990;-1.608;2022-09-03T06:27:18;20.08;;;17.95;;
49378;SDS011;35254;47.990;-1.608;2022-09-03T06:29:45;20.88;;;18.50;;
49378;SDS011;35254;47.990;-1.608;2022-09-03T06:32:10;22.02;;;18.27;;
49378;SDS011;35254;47.990;-1.608;2022-09-03T06:34:36;21.40;;;17.67;;
49378;SDS011;35254;47.990;-1.608;2022-09-03T06:37:02;21.85;;;17.05;;
49378;SDS011;35254;47.990;-1.608;2022-09-03T06:39:28;19.60;;;17.55;;
49378;SDS011;35254;47.990;-1.608;2022-09-03T06:41:53;18.98;;;17.00;;
49378;SDS011;35254;47.990;-1.608;2022-09-03T06:44:19;21.02;;;17.73;;
49378;SDS011;35254;47.990;-1.608;2022-09-03T06:46:45;21.73;;;17.40;;
49378;SDS011;35254;47.990;-1.608;2022-09-03T06:49:11;19.88;;;17.88;;
49378;SDS011;35254;47.990;-1.608;2022-09-03T06:51:36;21.45;;;19.23;;
49378;SDS011;35254;47.990;-1.608;2022-09-03T06:54:04;21.45;;;19.15;;
49378;SDS011;35254;47.990;-1.608;2022-09-03T06:56:31;21.33;;;18.90;;
49378;SDS011;35254;47.990;-1.608;2022-09-03T06:58:58;24.02;;;20.88;;
49378;SDS011;35254;47.990;-1.608;2022-09-03T07:01:28;26.20;;;20.23;;
49378;SDS011;35254;47.990;-1.608;2022-09-03T07:03:56;23.58;;;21.13;;
49378;SDS011;35254;47.990;-1.608;2022-09-03T07:06:26;28.70;;;21.75;;
49378;SDS011;35254;47.990;-1.608;2022-09-03T07:08:57;23.58;;;21.17;;
49378;SDS011;35254;47.990;-1.608;2022-09-03T07:11:24;25.13;;;22.42;;
49378;SDS011;35254;47.990;-1.608;2022-09-03T07:13:53;27.40;;;24.57;;
49378;SDS011;35254;47.990;-1.608;2022-09-03T07:16:21;29.42;;;24.55;;
49378;SDS011;35254;47.990;-1.608;2022-09-03T07:18:48;30.33;;;25.17;;
49378;SDS011;35254;47.990;-1.608;2022-09-03T07:21:16;36.67;;;26.83;;
49378;SDS011;35254;47.990;-1.608;2022-09-03T07:23:50;38.17;;;26.25;;
49378;SDS011;35254;47.990;-1.608;2022-09-03T07:26:26;32.88;;;27.08;;
49378;SDS011;35254;47.990;-1.608;2022-09-03T07:28:56;32.45;;;27.15;;
49378;SDS011;35254;47.990;-1.608;2022-09-03T07:31:24;35.00;;;25.27;;
49378;SDS011;35254;47.990;-1.608;2022-09-03T07:33:55;39.28;;;25.20;;
49378;SDS011;35254;47.990;-1.608;2022-09-03T07:36:22;30.60;;;26.17;;
49378;SDS011;35254;47.990;-1.608;2022-09-03T07:38:49;29.38;;;25.73;;
49378;SDS011;35254;47.990;-1.608;2022-09-03T07:41:15;38.65;;;28.65;;
49378;SDS011;35254;47.990;-1.608;2022-09-03T07:43:44;40.05;;;29.50;;
49378;SDS011;35254;47.990;-1.608;2022-09-03T07:46:14;41.90;;;30.92;;
49378;SDS011;35254;47.990;-1.608;2022-09-03T07:48:47;38.47;;;30.38;;
49378;SDS011;35254;47.990;-1.608;2022-09-03T07:51:15;41.60;;;31.27;;
49378;SDS011;35254;47.990;-1.608;2022-09-03T07:53:42;39.42;;;31.02;;
49378;SDS011;35254;47.990;-1.608;2022-09-03T07:56:11;44.10;;;32.92;;
49378;SDS011;35254;47.990;-1.608;2022-09-03T07:58:37;42.15;;;33.50;;
49378;SDS011;35254;47.990;-1.608;2022-09-03T08:01:14;45.75;;;32.97;;
49378;SDS011;35254;47.990;-1.608;2022-09-03T08:03:42;41.47;;;31.52;;
49378;SDS011;35254;47.990;-1.608;2022-09-03T08:06:09;46.17;;;31.05;;
49378;SDS011;35254;47.990;-1.608;2022-09-03T08:08:35;42.10;;;30.05;;
49378;SDS011;35254;47.990;-1.608;2022-09-03T08:11:02;39.00;;;29.75;;
49378;SDS011;35254;47.990;-1.608;2022-09-03T08:13:38;33.25;;;28.45;;
49378;SDS011;35254;47.990;-1.608;2022-09-03T08:16:06;40.92;;;31.30;;
49378;SDS011;35254;47.990;-1.608;2022-09-03T08:18:33;37.33;;;30.00;;
49378;SDS011;35254;47.990;-1.608;2022-09-03T08:21:11;36.47;;;28.67;;
49378;SDS011;35254;47.990;-1.608;2022-09-03T08:23:40;38.88;;;27.80;;
49378;SDS011;35254;47.990;-1.608;2022-09-03T08:26:08;37.70;;;28.80;;
49378;SDS011;35254;47.990;-1.608;2022-09-03T08:28:35;50.92;;;29.05;;
49378;SDS011;35254;47.990;-1.608;2022-09-03T08:31:20;36.28;;;30.33;;
49378;SDS011;35254;47.990;-1.608;2022-09-03T08:33:50;44.30;;;28.30;;
49378;SDS011;35254;47.990;-1.608;2022-09-03T08:36:21;38.08;;;29.02;;
49378;SDS011;35254;47.990;-1.608;2022-09-03T08:38:55;33.97;;;28.25;;
49378;SDS011;35254;47.990;-1.608;2022-09-03T08:41:24;33.53;;;27.88;;
49378;SDS011;35254;47.990;-1.608;2022-09-03T08:49:19;31.83;;;27.58;;
49378;SDS011;35254;47.990;-1.608;2022-09-03T08:52:02;40.05;;;29.83;;
49378;SDS011;35254;47.990;-1.608;2022-09-03T08:54:33;37.78;;;28.30;;
49378;SDS011;35254;47.990;-1.608;2022-09-03T08:57:01;31.25;;;27.48;;
49378;SDS011;35254;47.990;-1.608;2022-09-03T08:59:30;41.03;;;27.00;;
49378;SDS011;35254;47.990;-1.608;2022-09-03T09:02:00;33.15;;;28.15;;
49378;SDS011;35254;47.990;-1.608;2022-09-03T09:07:13;40.80;;;25.38;;
49378;SDS011;35254;47.990;-1.608;2022-09-03T09:12:39;27.23;;;23.20;;
49378;SDS011;35254;47.990;-1.608;2022-09-03T09:21:13;29.83;;;20.92;;
49378;SDS011;35254;47.990;-1.608;2022-09-03T09:23:48;24.48;;;18.25;;
49378;SDS011;35254;47.990;-1.608;2022-09-03T09:26:16;25.13;;;19.05;;
49378;SDS011;35254;47.990;-1.608;2022-09-03T09:28:45;26.88;;;18.65;;
49378;SDS011;35254;47.990;-1.608;2022-09-03T09:31:17;27.23;;;16.63;;
49378;SDS011;35254;47.990;-1.608;2022-09-03T09:33:44;24.50;;;16.60;;
49378;SDS011;35254;47.990;-1.608;2022-09-03T09:36:11;21.80;;;18.67;;
49378;SDS011;35254;47.990;-1.608;2022-09-03T09:38:43;17.92;;;15.77;;
49378;SDS011;35254;47.990;-1.608;2022-09-03T09:41:19;16.67;;;14.55;;
49378;SDS011;35254;47.990;-1.608;2022-09-03T09:43:47;17.23;;;15.30;;
49378;SDS011;35254;47.990;-1.608;2022-09-03T09:46:34;21.20;;;13.75;;
49378;SDS011;35254;47.990;-1.608;2022-09-03T09:49:02;16.10;;;12.00;;
49378;SDS011;35254;47.990;-1.608;2022-09-03T09:51:32;26.73;;;14.57;;
49378;SDS011;35254;47.990;-1.608;2022-09-03T09:54:23;15.43;;;12.73;;
49378;SDS011;35254;47.990;-1.608;2022-09-03T09:57:25;18.95;;;14.55;;
49378;SDS011;35254;47.990;-1.608;2022-09-03T09:59:48;15.43;;;12.35;;
49378;SDS011;35254;47.990;-1.608;2022-09-03T10:04:44;19.55;;;11.52;;
49378;SDS011;35254;47.990;-1.608;2022-09-03T10:10:01;11.68;;;10.30;;
49378;SDS011;35254;47.990;-1.608;2022-09-03T10:12:39;15.52;;;10.50;;
49378;SDS011;35254;47.990;-1.608;2022-09-03T10:15:25;12.10;;;10.00;;
49378;SDS011;35254;47.990;-1.608;2022-09-03T10:18:15;14.85;;;8.90;;
49378;SDS011;35254;47.990;-1.608;2022-09-03T10:21:05;11.43;;;7.60;;
49378;SDS011;35254;47.990;-1.608;2022-09-03T10:26:23;13.00;;;7.40;;
49378;SDS011;35254;47.990;-1.608;2022-09-03T10:28:56;14.43;;;6.72;;
49378;SDS011;35254;47.990;-1.608;2022-09-03T10:36:34;13.38;;;6.68;;
49378;SDS011;35254;47.990;-1.608;2022-09-03T10:39:05;13.10;;;7.07;;
49378;SDS011;35254;47.990;-1.608;2022-09-03T11:01:30;9.63;;;4.35;;
49378;SDS011;35254;47.990;-1.608;2022-09-03T11:04:40;7.63;;;4.72;;
49378;SDS011;35254;47.990;-1.608;2022-09-03T11:07:13;9.57;;;5.07;;
49378;SDS011;35254;47.990;-1.608;2022-09-03T11:09:47;7.57;;;4.63;;
49378;SDS011;35254;47.990;-1.608;2022-09-03T11:12:24;10.13;;;5.00;;
49378;SDS011;35254;47.990;-1.608;2022-09-03T11:15:32;16.65;;;5.03;;
49378;SDS011;35254;47.990;-1.608;2022-09-03T11:18:03;7.72;;;4.53;;
49378;SDS011;35254;47.990;-1.608;2022-09-03T11:20:52;8.45;;;5.13;;
49378;SDS011;35254;47.990;-1.608;2022-09-03T11:23:26;7.22;;;4.05;;
49378;SDS011;35254;47.990;-1.608;2022-09-03T11:25:53;11.07;;;4.68;;
49378;SDS011;35254;47.990;-1.608;2022-09-03T11:28:28;9.82;;;5.03;;
49378;SDS011;35254;47.990;-1.608;2022-09-03T11:33:49;10.73;;;4.40;;
49378;SDS011;35254;47.990;-1.608;2022-09-03T11:36:22;12.35;;;4.57;;
49378;SDS011;35254;47.990;-1.608;2022-09-03T11:38:57;11.07;;;4.35;;
49378;SDS011;35254;47.990;-1.608;2022-09-03T11:43:51;7.88;;;4.10;;
49378;SDS011;35254;47.990;-1.608;2022-09-03T11:48:47;4.30;;;3.67;;
49378;SDS011;35254;47.990;-1.608;2022-09-03T11:54:05;9.18;;;4.32;;
49378;SDS011;35254;47.990;-1.608;2022-09-03T11:56:37;14.45;;;4.25;;
49378;SDS011;35254;47.990;-1.608;2022-09-03T12:04:18;9.63;;;4.43;;
49378;SDS011;35254;47.990;-1.608;2022-09-03T12:07:11;11.32;;;4.15;;
49378;SDS011;35254;47.990;-1.608;2022-09-03T12:23:32;12.32;;;3.05;;
49378;SDS011;35254;47.990;-1.608;2022-09-03T12:26:07;13.88;;;4.10;;
49378;SDS011;35254;47.990;-1.608;2022-09-03T12:28:55;10.10;;;3.60;;
49378;SDS011;35254;47.990;-1.608;2022-09-03T12:31:23;11.65;;;3.17;;
49378;SDS011;35254;47.990;-1.608;2022-09-03T12:33:55;4.10;;;2.53;;
49378;SDS011;35254;47.990;-1.608;2022-09-03T12:42:04;5.38;;;2.72;;
49378;SDS011;35254;47.990;-1.608;2022-09-03T12:49:42;15.63;;;2.85;;
49378;SDS011;35254;47.990;-1.608;2022-09-03T12:52:19;14.00;;;3.20;;
49378;SDS011;35254;47.990;-1.608;2022-09-03T12:54:49;5.78;;;2.70;;
49378;SDS011;35254;47.990;-1.608;2022-09-03T12:57:37;11.05;;;2.63;;
49378;SDS011;35254;47.990;-1.608;2022-09-03T13:00:06;9.07;;;2.80;;
49378;SDS011;35254;47.990;-1.608;2022-09-03T13:02:38;6.50;;;2.05;;
49378;SDS011;35254;47.990;-1.608;2022-09-03T13:05:18;5.45;;;2.67;;
49378;SDS011;35254;47.990;-1.608;2022-09-03T13:07:50;6.20;;;2.63;;
49378;SDS011;35254;47.990;-1.608;2022-09-03T13:10:24;8.57;;;4.25;;
49378;SDS011;35254;47.990;-1.608;2022-09-03T13:13:02;6.40;;;2.42;;
49378;SDS011;35254;47.990;-1.608;2022-09-03T13:15:54;5.10;;;2.90;;
49378;SDS011;35254;47.990;-1.608;2022-09-03T13:21:05;7.80;;;2.33;;
49378;SDS011;35254;47.990;-1.608;2022-09-03T13:26:29;13.25;;;2.50;;
49378;SDS011;35254;47.990;-1.608;2022-09-03T13:32:08;6.20;;;1.98;;
49378;SDS011;35254;47.990;-1.608;2022-09-03T13:34:48;9.95;;;2.53;;
49378;SDS011;35254;47.990;-1.608;2022-09-03T13:37:24;9.35;;;3.20;;
49378;SDS011;35254;47.990;-1.608;2022-09-03T13:42:52;4.53;;;2.70;;
49378;SDS011;35254;47.990;-1.608;2022-09-03T13:45:37;8.10;;;2.83;;
49378;SDS011;35254;47.990;-1.608;2022-09-03T13:48:15;10.32;;;2.90;;
49378;SDS011;35254;47.990;-1.608;2022-09-03T13:51:16;12.65;;;3.08;;
49378;SDS011;35254;47.990;-1.608;2022-09-03T13:56:47;12.50;;;3.60;;
49378;SDS011;35254;47.990;-1.608;2022-09-03T14:00:04;4.70;;;2.40;;
49378;SDS011;35254;47.990;-1.608;2022-09-03T14:08:27;2.92;;;1.73;;
49378;SDS011;35254;47.990;-1.608;2022-09-03T14:16:16;5.18;;;2.05;;
49378;SDS011;35254;47.990;-1.608;2022-09-03T14:19:02;7.80;;;2.03;;
49378;SDS011;35254;47.990;-1.608;2022-09-03T14:21:38;6.20;;;2.00;;
49378;SDS011;35254;47.990;-1.608;2022-09-03T14:24:11;2.45;;;1.40;;
49378;SDS011;35254;47.990;-1.608;2022-09-03T14:26:50;4.78;;;2.17;;
49378;SDS011;35254;47.990;-1.608;2022-09-03T14:29:20;6.72;;;1.70;;
49378;SDS011;35254;47.990;-1.608;2022-09-03T14:39:58;5.45;;;1.45;;
49378;SDS011;35254;47.990;-1.608;2022-09-03T14:42:55;7.70;;;1.95;;
49378;SDS011;35254;47.990;-1.608;2022-09-03T14:45:51;3.05;;;1.50;;
49378;SDS011;35254;47.990;-1.608;2022-09-03T14:54:10;8.02;;;1.33;;
49378;SDS011;35254;47.990;-1.608;2022-09-03T15:01:40;8.13;;;1.40;;
49378;SDS011;35254;47.990;-1.608;2022-09-03T15:07:05;4.32;;;1.80;;
49378;SDS011;35254;47.990;-1.608;2022-09-03T15:10:04;3.75;;;1.58;;
49378;SDS011;35254;47.990;-1.608;2022-09-03T15:12:34;5.38;;;1.75;;
49378;SDS011;35254;47.990;-1.608;2022-09-03T15:15:11;7.63;;;1.83;;
49378;SDS011;35254;47.990;-1.608;2022-09-03T15:37:09;5.28;;;1.40;;
49378;SDS011;35254;47.990;-1.608;2022-09-03T15:39:43;3.45;;;1.55;;
49378;SDS011;35254;47.990;-1.608;2022-09-03T15:42:16;3.35;;;1.63;;
49378;SDS011;35254;47.990;-1.608;2022-09-03T15:44:51;3.45;;;1.38;;
49378;SDS011;35254;47.990;-1.608;2022-09-03T15:47:31;8.05;;;2.15;;
49378;SDS011;35254;47.990;-1.608;2022-09-03T15:55:29;11.93;;;1.85;;
49378;SDS011;35254;47.990;-1.608;2022-09-03T15:58:00;6.40;;;2.10;;
49378;SDS011;35254;47.990;-1.608;2022-09-03T16:00:38;5.38;;;1.67;;
49378;SDS011;35254;47.990;-1.608;2022-09-03T16:03:10;5.30;;;1.73;;
49378;SDS011;35254;47.990;-1.608;2022-09-03T16:05:45;10.80;;;1.55;;
49378;SDS011;35254;47.990;-1.608;2022-09-03T16:08:18;3.40;;;1.48;;
49378;SDS011;35254;47.990;-1.608;2022-09-03T16:11:01;5.10;;;1.73;;
49378;SDS011;35254;47.990;-1.608;2022-09-03T16:23:35;5.95;;;1.63;;
49378;SDS011;35254;47.990;-1.608;2022-09-03T16:26:28;7.90;;;1.83;;
49378;SDS011;35254;47.990;-1.608;2022-09-03T16:29:14;11.93;;;2.63;;
49378;SDS011;35254;47.990;-1.608;2022-09-03T16:36:56;7.47;;;2.03;;
49378;SDS011;35254;47.990;-1.608;2022-09-03T16:51:15;6.07;;;1.67;;
49378;SDS011;35254;47.990;-1.608;2022-09-03T16:59:40;4.03;;;2.15;;
49378;SDS011;35254;47.990;-1.608;2022-09-03T17:13:50;8.68;;;2.05;;
49378;SDS011;35254;47.990;-1.608;2022-09-03T17:22:24;7.07;;;1.98;;
49378;SDS011;35254;47.990;-1.608;2022-09-03T17:25:23;5.38;;;1.42;;
49378;SDS011;35254;47.990;-1.608;2022-09-03T17:30:52;7.65;;;1.95;;
49378;SDS011;35254;47.990;-1.608;2022-09-03T17:36:24;19.77;;;17.95;;
49378;SDS011;35254;47.990;-1.608;2022-09-03T17:55:12;43.78;;;32.28;;
49378;SDS011;35254;47.990;-1.608;2022-09-03T17:57:57;14.98;;;3.92;;
49378;SDS011;35254;47.990;-1.608;2022-09-03T18:00:41;5.85;;;2.97;;
49378;SDS011;35254;47.990;-1.608;2022-09-03T18:06:05;6.90;;;1.92;;
49378;SDS011;35254;47.990;-1.608;2022-09-03T18:19:07;6.97;;;2.17;;
49378;SDS011;35254;47.990;-1.608;2022-09-03T18:21:53;4.22;;;1.63;;
49378;SDS011;35254;47.990;-1.608;2022-09-03T18:24:46;8.90;;;1.60;;
49378;SDS011;35254;47.990;-1.608;2022-09-03T18:27:45;3.13;;;1.50;;
49378;SDS011;35254;47.990;-1.608;2022-09-03T18:30:33;5.20;;;1.58;;
49378;SDS011;35254;47.990;-1.608;2022-09-03T18:33:22;5.50;;;2.15;;
49378;SDS011;35254;47.990;-1.608;2022-09-03T18:36:08;5.45;;;1.65;;
49378;SDS011;35254;47.990;-1.608;2022-09-03T18:38:57;8.77;;;2.95;;
49378;SDS011;35254;47.990;-1.608;2022-09-03T18:42:09;5.63;;;1.67;;
49378;SDS011;35254;47.990;-1.608;2022-09-03T18:48:27;9.50;;;2.17;;
49378;SDS011;35254;47.990;-1.608;2022-09-03T18:51:23;4.70;;;1.60;;
49378;SDS011;35254;47.990;-1.608;2022-09-03T18:57:13;7.75;;;1.95;;
49378;SDS011;35254;47.990;-1.608;2022-09-03T19:00:24;7.53;;;1.70;;
49378;SDS011;35254;47.990;-1.608;2022-09-03T19:12:51;4.68;;;1.42;;
49378;SDS011;35254;47.990;-1.608;2022-09-03T19:16:18;8.67;;;1.83;;
49378;SDS011;35254;47.990;-1.608;2022-09-03T19:22:49;11.18;;;2.47;;
49378;SDS011;35254;47.990;-1.608;2022-09-03T19:25:34;6.90;;;2.30;;
49378;SDS011;35254;47.990;-1.608;2022-09-03T19:28:20;9.23;;;2.13;;
49378;SDS011;35254;47.990;-1.608;2022-09-03T19:31:14;12.10;;;2.40;;
49378;SDS011;35254;47.990;-1.608;2022-09-03T19:37:25;5.60;;;1.67;;
49378;SDS011;35254;47.990;-1.608;2022-09-03T19:43:35;7.05;;;1.88;;
49378;SDS011;35254;47.990;-1.608;2022-09-03T19:55:33;4.93;;;1.70;;
49378;SDS011;35254;47.990;-1.608;2022-09-03T19:58:22;6.40;;;1.63;;
49378;SDS011;35254;47.990;-1.608;2022-09-03T20:01:08;7.75;;;2.58;;
49378;SDS011;35254;47.990;-1.608;2022-09-03T20:03:54;8.10;;;1.85;;
49378;SDS011;35254;47.990;-1.608;2022-09-03T20:06:41;5.15;;;2.00;;
49378;SDS011;35254;47.990;-1.608;2022-09-03T20:09:28;8.15;;;2.22;;
49378;SDS011;35254;47.990;-1.608;2022-09-03T20:12:16;4.10;;;1.83;;
49378;SDS011;35254;47.990;-1.608;2022-09-03T20:14:46;6.88;;;2.38;;
49378;SDS011;35254;47.990;-1.608;2022-09-03T20:17:23;6.28;;;1.83;;
49378;SDS011;35254;47.990;-1.608;2022-09-03T20:36:46;10.75;;;3.15;;
49378;SDS011;35254;47.990;-1.608;2022-09-03T20:51:04;8.00;;;1.70;;
49378;SDS011;35254;47.990;-1.608;2022-09-03T20:53:43;8.45;;;2.25;;
49378;SDS011;35254;47.990;-1.608;2022-09-03T21:20:27;8.90;;;2.50;;
49378;SDS011;35254;47.990;-1.608;2022-09-03T21:25:41;4.60;;;1.77;;
49378;SDS011;35254;47.990;-1.608;2022-09-03T21:30:53;9.60;;;2.90;;
49378;SDS011;35254;47.990;-1.608;2022-09-03T21:33:27;5.07;;;2.28;;
49378;SDS011;35254;47.990;-1.608;2022-09-03T21:38:39;5.82;;;1.85;;
49378;SDS011;35254;47.990;-1.608;2022-09-03T21:41:16;11.32;;;2.17;;